createdAt,value
2019-04-14T00:01:06.719Z,38.40
2019-04-14T00:02:47.686Z,39.83
2019-04-14T00:04:29.265Z,37.98
2019-04-14T00:06:09.156Z,41.45
2019-04-14T00:07:49.454Z,40.40
2019-04-14T00:09:29.416Z,39.25
2019-04-14T00:11:08.735Z,42.35
2019-04-14T00:12:51.293Z,41.83
2019-04-14T00:14:33.549Z,39.30
2019-04-14T00:16:14.146Z,46.13
2019-04-14T00:17:54.393Z,39.33
2019-04-14T00:19:34.886Z,40.35
2019-04-14T00:21:13.388Z,37.58
2019-04-14T00:22:53.421Z,41.28
2019-04-14T00:24:33.555Z,35.90
2019-04-14T00:26:27.448Z,44.77
2019-04-14T00:28:07.355Z,40.10
2019-04-14T00:29:47.933Z,37.13
2019-04-14T00:31:30.598Z,40.08
2019-04-14T00:33:12.767Z,40.70
2019-04-14T00:34:59.413Z,38.20
2019-04-14T00:36:56.603Z,40.70
2019-04-14T00:38:39.067Z,39.78
2019-04-14T00:40:21.804Z,37.50
2019-04-14T00:42:25.616Z,40.20
2019-04-14T00:44:14.647Z,44.45
2019-04-14T00:46:00.564Z,43.17
2019-04-14T00:47:59.496Z,40.83
2019-04-14T00:49:31.258Z,44.53
2019-04-14T00:51:11.283Z,44.73
2019-04-14T00:52:50.199Z,43.30
2019-04-14T00:54:30.429Z,40.23
2019-04-14T00:56:10.490Z,37.20
2019-04-14T00:57:50.900Z,43.55
2019-04-14T00:59:31.202Z,42.33
2019-04-14T01:01:11.230Z,37.40
2019-04-14T01:02:51.534Z,40.85
2019-04-14T01:04:31.615Z,39.58
2019-04-14T01:06:12.138Z,49.50
2019-04-14T01:07:52.342Z,38.30
2019-04-14T01:09:32.693Z,40.33
2019-04-14T01:11:12.232Z,44.20
2019-04-14T01:12:51.769Z,40.33
2019-04-14T01:14:32.013Z,41.18
2019-04-14T01:16:17.016Z,39.83
2019-04-14T01:17:52.891Z,41.05
2019-04-14T01:19:32.994Z,41.90
2019-04-14T01:21:17.447Z,38.60
2019-04-14T01:22:57.467Z,38.75
2019-04-14T01:24:40.314Z,38.95
2019-04-14T01:26:20.395Z,38.05
2019-04-14T01:28:00.295Z,39.05
2019-04-14T01:29:40.516Z,35.90
2019-04-14T01:31:20.664Z,40.10
2019-04-14T01:33:01.108Z,43.13
2019-04-14T01:34:41.176Z,34.67
2019-04-14T01:36:21.251Z,32.80
2019-04-14T01:38:03.804Z,35.05
2019-04-14T01:39:44.147Z,36.68
2019-04-14T01:41:24.423Z,34.08
2019-04-14T01:43:03.863Z,34.03
2019-04-14T01:44:43.850Z,33.75
2019-04-14T01:46:30.952Z,33.70
2019-04-14T01:48:08.467Z,33.05
2019-04-14T01:49:48.684Z,29.87
2019-04-14T01:51:30.912Z,29.77
2019-04-14T01:53:31.914Z,31.02
2019-04-14T01:55:28.819Z,36.50
2019-04-14T01:57:24.550Z,30.85
2019-04-14T01:59:04.528Z,30.92
2019-04-14T02:00:44.792Z,36.20
2019-04-14T02:02:25.438Z,30.45
2019-04-14T02:04:04.985Z,33.50
2019-04-14T02:05:43.248Z,30.75
2019-04-14T02:07:23.354Z,33.08
2019-04-14T02:09:03.276Z,35.38
2019-04-14T02:10:43.735Z,30.50
2019-04-14T02:12:23.507Z,29.10
2019-04-14T02:14:02.082Z,30.10
2019-04-14T02:15:40.455Z,34.03
2019-04-14T02:17:20.300Z,31.50
2019-04-14T02:18:58.611Z,33.88
2019-04-14T02:20:38.279Z,32.65
2019-04-14T02:22:18.134Z,35.60
2019-04-14T02:23:56.317Z,30.65
2019-04-14T02:25:34.420Z,32.83
2019-04-14T02:27:14.859Z,34.92
2019-04-14T02:28:55.006Z,37.55
2019-04-14T02:30:48.460Z,33.15
2019-04-14T02:32:49.830Z,31.95
2019-04-14T02:34:34.546Z,35.92
2019-04-14T02:36:14.201Z,38.60
2019-04-14T02:37:57.103Z,35.92
2019-04-14T02:41:21.565Z,38.58
2019-04-14T02:42:59.210Z,35.03
2019-04-14T02:44:48.698Z,35.30
2019-04-14T02:46:26.419Z,36.28
2019-04-14T02:49:51.426Z,40.20
2019-04-14T02:53:10.975Z,40.55
2019-04-14T02:56:27.951Z,36.98
2019-04-14T02:58:10.245Z,39.73
2019-04-14T02:59:56.251Z,41.70
2019-04-14T03:01:54.830Z,39.98
2019-04-14T03:03:16.093Z,38.35
2019-04-14T03:05:18.628Z,36.98
2019-04-14T03:06:33.355Z,39.48
2019-04-14T03:08:18.777Z,41.30
2019-04-14T03:10:16.471Z,34.90
2019-04-14T03:11:40.274Z,40.70
2019-04-14T03:16:51.975Z,36.03
2019-04-14T03:20:47.585Z,45.95
2019-04-14T03:24:15.834Z,39.50
2019-04-14T03:25:59.408Z,43.20
2019-04-14T03:29:40.784Z,49.73
2019-04-14T03:33:18.505Z,43.35
2019-04-14T03:34:54.650Z,45.30
2019-04-14T03:36:58.300Z,38.23
2019-04-14T03:38:15.265Z,46.50
2019-04-14T03:39:46.615Z,43.75
2019-04-14T03:41:31.555Z,45.15
2019-04-14T03:43:09.924Z,40.73
2019-04-14T03:44:50.376Z,40.98
2019-04-14T03:49:54.334Z,46.35
2019-04-14T03:51:40.439Z,38.17
2019-04-14T03:53:26.835Z,44.10
2019-04-14T03:54:44.099Z,45.45
2019-04-14T03:56:14.382Z,43.73
2019-04-14T03:57:54.470Z,46.95
2019-04-14T03:59:34.596Z,42.73
2019-04-14T04:01:13.023Z,45.05
2019-04-14T04:02:53.304Z,49.00
2019-04-14T04:04:33.898Z,48.13
2019-04-14T04:06:13.672Z,44.83
2019-04-14T04:07:53.898Z,42.17
2019-04-14T04:09:45.355Z,45.30
2019-04-14T04:11:25.851Z,41.25
2019-04-14T04:13:04.393Z,41.33
2019-04-14T04:14:44.247Z,45.98
2019-04-14T04:16:26.902Z,48.90
2019-04-14T04:18:13.503Z,46.48
2019-04-14T04:19:55.617Z,45.25
2019-04-14T04:21:49.488Z,53.28
2019-04-14T04:23:51.130Z,52.25
2019-04-14T04:25:33.299Z,51.40
2019-04-14T04:27:29.283Z,47.93
2019-04-14T04:29:14.209Z,44.30
2019-04-14T04:30:53.753Z,45.50
2019-04-14T04:32:51.630Z,51.08
2019-04-14T04:34:49.085Z,49.13
2019-04-14T04:36:31.279Z,48.15
2019-04-14T04:38:18.202Z,53.08
2019-04-14T04:40:00.668Z,50.78
2019-04-14T04:41:40.752Z,51.53
2019-04-14T04:43:21.162Z,48.35
2019-04-14T04:45:01.683Z,51.05
2019-04-14T04:46:41.922Z,55.52
2019-04-14T04:48:24.178Z,53.15
2019-04-14T04:50:04.356Z,51.58
2019-04-14T04:51:42.826Z,52.48
2019-04-14T04:53:22.363Z,50.73
2019-04-14T04:55:00.920Z,52.15
2019-04-14T04:56:40.523Z,52.80
2019-04-14T04:58:19.526Z,50.75
2019-04-14T05:00:00.502Z,51.48
2019-04-14T05:01:38.732Z,50.03
2019-04-14T05:03:18.917Z,46.98
2019-04-14T05:05:01.314Z,46.85
2019-04-14T05:07:03.564Z,50.95
2019-04-14T05:08:52.242Z,46.85
2019-04-14T05:10:34.994Z,52.38
2019-04-14T05:12:26.286Z,50.03
2019-04-14T05:14:11.495Z,56.75
2019-04-14T05:15:53.184Z,54.85
2019-04-14T05:17:38.893Z,51.65
2019-04-14T05:19:25.729Z,52.00
2019-04-14T05:46:06.051Z,62.67
2019-04-14T05:47:52.163Z,55.17
2019-04-14T05:49:44.294Z,50.05
2019-04-14T05:51:22.140Z,51.58
2019-04-14T05:53:04.351Z,56.33
2019-04-14T05:54:51.974Z,57.13
2019-04-14T05:56:45.268Z,64.25
2019-04-14T05:58:34.376Z,57.67
2019-04-14T06:00:14.584Z,56.83
2019-04-14T06:01:55.532Z,57.08
2019-04-14T06:03:36.460Z,63.73
2019-04-14T06:05:17.239Z,61.33
2019-04-14T06:06:59.943Z,55.85
2019-04-14T06:08:44.300Z,58.55
2019-04-14T06:10:34.373Z,62.05
2019-04-14T06:12:17.656Z,64.47
2019-04-14T06:14:00.777Z,57.83
2019-04-14T06:15:40.098Z,59.13
2019-04-14T06:17:20.707Z,56.95
2019-04-14T06:19:00.141Z,59.65
2019-04-14T06:20:40.000Z,61.58
2019-04-14T06:22:21.839Z,59.88
2019-04-14T06:24:00.360Z,62.08
2019-04-14T06:25:40.021Z,61.55
2019-04-14T06:27:19.788Z,58.55
2019-04-14T06:29:00.216Z,60.52
2019-04-14T06:30:41.255Z,51.85
2019-04-14T06:32:22.201Z,56.50
2019-04-14T06:34:03.500Z,58.60
2019-04-14T06:35:44.404Z,59.03
2019-04-14T06:37:23.607Z,57.00
2019-04-14T06:39:22.683Z,54.33
2019-04-14T06:41:03.428Z,60.38
2019-04-14T06:42:42.048Z,54.05
2019-04-14T06:44:24.894Z,57.75
2019-04-14T06:46:04.647Z,55.52
2019-04-14T06:47:45.491Z,56.73
2019-04-14T06:49:23.795Z,48.68
2019-04-14T06:51:02.663Z,54.60
2019-04-14T06:52:42.488Z,63.05
2019-04-14T06:54:21.081Z,57.50
2019-04-14T06:55:58.967Z,44.30
2019-04-14T06:57:38.931Z,55.28
2019-04-14T06:59:22.422Z,56.53
2019-04-14T07:01:03.533Z,45.50
2019-04-14T07:02:41.773Z,45.08
2019-04-14T07:04:20.182Z,47.75
2019-04-14T07:06:00.330Z,50.58
2019-04-14T07:07:40.039Z,47.80
2019-04-14T07:09:19.261Z,43.48
2019-04-14T07:11:00.668Z,52.65
2019-04-14T07:12:42.907Z,49.77
2019-04-14T07:14:22.214Z,43.45
2019-04-14T07:16:00.543Z,46.60
2019-04-14T07:17:39.932Z,49.20
2019-04-14T07:19:19.343Z,45.58
2019-04-14T07:20:57.579Z,44.38
2019-04-14T07:22:36.475Z,39.50
2019-04-14T07:24:14.214Z,42.62
2019-04-14T07:25:53.048Z,39.55
2019-04-14T07:27:31.889Z,43.08
2019-04-14T07:29:14.793Z,46.42
2019-04-14T07:30:56.337Z,40.25
2019-04-14T07:32:57.101Z,43.75
2019-04-14T07:34:49.599Z,40.60
2019-04-14T07:36:52.208Z,43.05
2019-04-14T07:38:38.775Z,46.92
2019-04-14T07:40:37.025Z,43.55
2019-04-14T07:42:23.762Z,41.25
2019-04-14T07:44:21.479Z,41.68
2019-04-14T07:46:01.583Z,37.83
2019-04-14T07:47:46.776Z,46.05
2019-04-14T07:51:46.713Z,42.90
2019-04-14T07:53:42.287Z,44.35
2019-04-14T07:55:29.075Z,42.27
2019-04-14T07:57:10.883Z,39.50
2019-04-14T07:59:09.195Z,39.92
2019-04-14T08:00:51.241Z,45.03
2019-04-14T08:02:41.799Z,39.85
2019-04-14T08:04:22.396Z,41.10
2019-04-14T08:06:02.509Z,42.15
2019-04-14T08:07:43.868Z,36.58
2019-04-14T08:09:21.557Z,39.65
2019-04-14T08:11:01.557Z,39.45
2019-04-14T08:12:44.640Z,43.65
2019-04-14T08:14:24.280Z,37.67
2019-04-14T08:16:04.289Z,41.60
2019-04-14T08:17:46.919Z,41.45
2019-04-14T08:19:24.780Z,41.25
2019-04-14T08:21:05.118Z,44.45
2019-04-14T08:22:44.954Z,40.55
2019-04-14T08:24:26.786Z,41.08
2019-04-14T08:26:06.253Z,36.45
2019-04-14T08:27:46.481Z,45.95
2019-04-14T08:29:25.468Z,45.05
2019-04-14T08:31:05.885Z,44.30
2019-04-14T08:32:44.390Z,39.40
2019-04-14T08:34:25.159Z,39.67
2019-04-14T08:36:04.669Z,42.17
2019-04-14T08:39:28.795Z,45.98
2019-04-14T08:41:12.492Z,48.95
2019-04-14T08:42:58.178Z,47.78
2019-04-14T08:44:49.436Z,38.15
2019-04-14T08:46:50.289Z,45.08
2019-04-14T08:48:36.997Z,39.23
2019-04-14T08:50:25.839Z,43.42
2019-04-14T08:52:11.869Z,37.50
2019-04-14T08:53:52.894Z,41.85
2019-04-14T08:55:56.410Z,40.17
2019-04-14T08:57:42.644Z,37.60
2019-04-14T08:59:41.992Z,39.00
2019-04-14T09:01:24.097Z,42.27
2019-04-14T09:03:29.648Z,42.40
2019-04-14T09:05:13.175Z,46.83
2019-04-14T09:06:58.159Z,41.90
2019-04-14T09:08:41.079Z,42.08
2019-04-14T09:10:24.469Z,38.10
2019-04-14T09:12:14.782Z,38.23
2019-04-14T09:13:48.789Z,45.03
2019-04-14T09:15:33.207Z,42.08
2019-04-14T09:17:13.694Z,44.18
2019-04-14T09:18:53.757Z,42.80
2019-04-14T09:20:33.307Z,39.78
2019-04-14T09:22:16.207Z,42.13
2019-04-14T09:23:56.742Z,37.98
2019-04-14T09:25:41.125Z,47.67
2019-04-14T09:27:19.455Z,40.05
2019-04-14T09:28:57.762Z,38.28
2019-04-14T09:30:38.145Z,36.88
2019-04-14T09:32:18.387Z,34.83
2019-04-14T09:33:57.781Z,34.45
2019-04-14T09:35:37.260Z,40.63
2019-04-14T09:37:15.525Z,35.92
2019-04-14T09:38:58.891Z,35.33
2019-04-14T09:40:37.789Z,36.65
2019-04-14T09:42:17.411Z,37.90
2019-04-14T09:43:58.570Z,34.63
2019-04-14T09:45:39.654Z,36.53
2019-04-14T09:47:17.499Z,35.23
2019-04-14T09:48:57.315Z,35.25
2019-04-14T09:50:36.036Z,37.55
2019-04-14T09:52:13.690Z,35.88
2019-04-14T09:53:58.399Z,37.28
2019-04-14T09:55:41.081Z,31.57
2019-04-14T09:57:24.080Z,34.33
2019-04-14T09:59:06.491Z,38.23
2019-04-14T10:02:50.832Z,56.53
2019-04-14T10:04:48.686Z,44.67
2019-04-14T10:06:26.395Z,38.45
2019-04-14T10:08:06.374Z,34.63
2019-04-14T10:09:44.808Z,38.60
2019-04-14T10:11:22.337Z,34.65
2019-04-14T10:12:59.878Z,36.25
2019-04-14T10:14:39.028Z,29.32
2019-04-14T10:16:18.736Z,33.25
2019-04-14T10:17:57.489Z,32.40
2019-04-14T10:19:35.396Z,31.85
2019-04-14T10:21:17.545Z,32.00
2019-04-14T10:22:54.949Z,38.80
2019-04-14T10:24:33.415Z,33.85
2019-04-14T10:26:11.373Z,33.35
2019-04-14T10:27:49.594Z,36.63
2019-04-14T10:29:27.713Z,32.98
2019-04-14T10:31:06.597Z,37.85
2019-04-14T10:32:44.481Z,33.53
2019-04-14T10:34:22.937Z,35.25
2019-04-14T10:36:00.481Z,32.95
2019-04-14T10:38:30.873Z,29.00
2019-04-14T10:39:45.095Z,31.07
2019-04-14T10:41:23.532Z,39.00
2019-04-14T10:44:47.602Z,34.13
2019-04-14T10:45:10.932Z,38.38
2019-04-14T10:46:33.761Z,35.58
2019-04-14T10:48:18.200Z,28.87
2019-04-14T10:49:57.663Z,33.73
2019-04-14T10:51:39.638Z,35.13
2019-04-14T10:53:22.015Z,37.20
2019-04-14T10:55:19.067Z,31.57
2019-04-14T10:57:05.112Z,36.28
2019-04-14T10:58:43.802Z,39.80
2019-04-14T11:00:37.132Z,32.93
2019-04-14T11:02:37.302Z,47.80
2019-04-14T11:04:17.905Z,126.38
2019-04-14T11:06:11.550Z,38.88
2019-04-14T11:07:59.728Z,40.05
2019-04-14T11:09:37.211Z,35.33
2019-04-14T11:11:14.931Z,35.13
2019-04-14T11:12:52.257Z,91.40
2019-04-14T11:14:30.641Z,40.12
2019-04-14T11:16:09.387Z,90.92
2019-04-14T11:17:47.308Z,57.20
2019-04-14T11:19:24.998Z,133.60
2019-04-14T11:21:02.315Z,111.15
2019-04-14T11:22:40.298Z,39.45
2019-04-14T11:24:18.205Z,117.25
2019-04-14T11:25:55.817Z,56.68
2019-04-14T11:27:34.124Z,43.65
2019-04-14T11:29:11.980Z,34.30
2019-04-14T11:30:49.768Z,43.17
2019-04-14T11:32:28.915Z,41.20
2019-04-14T11:34:06.486Z,48.02
2019-04-14T11:35:46.904Z,43.75
2019-04-14T11:39:24.935Z,53.02
2019-04-14T11:41:05.951Z,90.85
2019-04-14T11:42:52.304Z,96.92
2019-04-14T11:44:22.738Z,87.57
2019-04-14T11:46:03.907Z,60.08
2019-04-14T11:49:25.225Z,67.60
2019-04-14T11:51:06.544Z,70.50
2019-04-14T11:52:44.548Z,43.42
2019-04-14T11:54:22.096Z,39.40
2019-04-14T11:56:00.437Z,47.62
2019-04-14T11:57:38.237Z,34.03
2019-04-14T17:48:38.695Z,32.65
2019-04-14T17:50:21.807Z,35.38
2019-04-14T17:52:17.742Z,32.03
2019-04-14T17:54:03.174Z,34.53
2019-04-14T17:55:51.794Z,34.95
2019-04-14T17:57:39.064Z,34.98
2019-04-14T17:59:19.504Z,31.90
2019-04-14T18:01:15.656Z,35.60
2019-04-14T18:03:03.630Z,38.98
2019-04-14T18:05:01.731Z,32.95
2019-04-14T18:06:46.739Z,38.28
2019-04-14T18:08:41.749Z,44.15
2019-04-14T18:10:29.555Z,37.80
2019-04-14T18:12:14.676Z,33.25
2019-04-14T18:14:16.295Z,41.48
2019-04-14T18:15:58.779Z,37.25
2019-04-14T18:17:43.386Z,34.58
2019-04-14T18:19:30.562Z,30.85
2019-04-14T18:21:10.968Z,36.48
2019-04-14T18:22:50.346Z,37.15
2019-04-14T18:24:28.157Z,37.73
2019-04-14T18:26:07.473Z,34.92
2019-04-14T18:28:02.433Z,32.53
2019-04-14T18:29:42.008Z,37.23
2019-04-14T18:31:22.904Z,37.00
2019-04-14T18:33:03.749Z,32.50
2019-04-14T18:34:51.222Z,37.70
2019-04-14T18:36:50.429Z,40.92
2019-04-14T18:38:30.698Z,40.00
2019-04-14T18:40:12.588Z,37.00
2019-04-14T18:42:15.694Z,38.45
2019-04-14T18:44:14.464Z,36.50
2019-04-14T18:45:56.462Z,43.00
2019-04-14T18:47:56.358Z,39.60
2019-04-14T18:49:52.704Z,50.75
2019-04-14T18:51:39.901Z,41.83
2019-04-14T18:53:34.211Z,59.70
2019-04-14T18:55:33.070Z,51.05
2019-04-14T18:57:17.794Z,40.25
2019-04-14T18:59:16.591Z,45.75
2019-04-14T19:01:05.200Z,39.92
2019-04-14T19:02:45.380Z,35.20
2019-04-14T19:04:25.158Z,38.15
2019-04-14T19:06:11.384Z,43.35
2019-04-14T19:07:52.910Z,42.78
2019-04-14T19:09:33.117Z,40.80
2019-04-14T19:11:16.762Z,41.45
2019-04-14T19:13:16.877Z,44.03
2019-04-14T19:14:59.793Z,41.77
2019-04-14T19:16:50.741Z,42.62
2019-04-14T19:18:49.871Z,42.67
2019-04-14T19:20:51.824Z,39.60
2019-04-14T19:25:06.742Z,39.55
2019-04-14T19:25:23.882Z,43.35
2019-04-14T19:27:03.477Z,44.48
2019-04-14T19:28:42.845Z,44.55
2019-04-14T19:30:24.402Z,40.70
2019-04-14T19:32:03.015Z,44.67
2019-04-14T19:33:43.317Z,38.02
2019-04-14T19:35:26.809Z,42.15
2019-04-14T19:37:07.311Z,42.05
2019-04-14T19:38:46.230Z,43.05
2019-04-14T19:40:24.652Z,37.55
2019-04-14T19:42:05.450Z,39.45
2019-04-14T19:43:47.196Z,37.83
2019-04-14T19:45:29.434Z,33.88
2019-04-14T19:47:08.734Z,35.38
2019-04-14T19:48:46.655Z,40.25
2019-04-14T19:50:25.992Z,34.48
2019-04-14T19:52:04.225Z,41.50
2019-04-14T19:53:45.651Z,33.42
2019-04-14T19:55:26.950Z,36.08
2019-04-14T19:57:06.296Z,34.63
2019-04-14T19:58:46.474Z,36.85
2019-04-14T20:00:27.892Z,37.73
2019-04-14T20:02:06.645Z,40.43
2019-04-14T20:03:46.876Z,37.50
2019-04-14T20:05:26.075Z,34.35
2019-04-14T20:07:05.909Z,34.75
2019-04-14T20:08:45.100Z,33.67
2019-04-14T20:10:25.486Z,28.98
2019-04-14T20:12:05.924Z,33.98
2019-04-14T20:13:53.444Z,33.05
2019-04-14T20:15:37.106Z,27.85
2019-04-14T20:17:29.487Z,36.05
2019-04-14T20:19:11.056Z,28.32
2019-04-14T20:21:16.466Z,31.07
2019-04-14T20:23:22.512Z,27.05
2019-04-14T20:25:09.910Z,31.90
2019-04-14T20:27:12.681Z,29.77
2019-04-14T20:28:57.461Z,35.58
2019-04-14T20:30:45.501Z,34.30
2019-04-14T20:32:32.459Z,34.18
2019-04-14T20:34:12.155Z,34.53
2019-04-14T20:35:52.223Z,33.35
2019-04-14T20:37:32.858Z,36.33
2019-04-14T20:39:16.652Z,35.33
2019-04-14T20:40:55.344Z,35.92
2019-04-14T20:42:36.002Z,31.37
2019-04-14T20:44:15.572Z,36.38
2019-04-14T20:45:55.031Z,27.32
2019-04-14T20:47:33.956Z,31.68
2019-04-14T20:49:12.078Z,35.33
2019-04-14T20:50:53.381Z,31.33
2019-04-14T20:52:33.131Z,33.02
2019-04-14T20:54:13.362Z,29.35
2019-04-14T20:55:52.517Z,34.30
2019-04-14T20:57:32.558Z,30.70
2019-04-14T20:59:12.429Z,31.02
2019-04-14T21:00:52.541Z,30.65
2019-04-14T21:02:33.650Z,31.55
2019-04-14T21:04:31.311Z,30.40
2019-04-14T21:06:15.135Z,34.60
2019-04-14T21:07:55.109Z,28.85
2019-04-14T21:09:38.593Z,29.60
2019-04-14T21:11:25.866Z,29.85
2019-04-14T21:13:08.579Z,32.08
2019-04-14T21:15:10.422Z,27.70
2019-04-14T21:16:53.953Z,27.98
2019-04-14T21:18:39.148Z,28.42
2019-04-14T21:20:24.867Z,28.47
2019-04-14T21:22:25.913Z,27.02
2019-04-14T21:24:07.267Z,25.00
2019-04-14T21:26:00.382Z,26.70
2019-04-14T21:27:42.224Z,31.10
2019-04-14T21:29:22.468Z,26.50
2019-04-14T21:31:06.936Z,33.48
2019-04-14T21:32:54.805Z,26.73
2019-04-14T21:34:38.917Z,26.68
2019-04-14T21:38:04.024Z,29.77
2019-04-14T21:39:55.373Z,26.68
2019-04-14T21:41:36.717Z,27.02
2019-04-14T21:43:19.504Z,33.00
2019-04-14T21:44:59.870Z,26.87
2019-04-14T21:46:37.446Z,23.00
2019-04-14T21:48:18.581Z,33.85
2019-04-14T21:50:08.852Z,28.62
2019-04-14T21:51:57.139Z,24.12
2019-04-14T21:53:39.255Z,29.23
2019-04-14T21:55:22.006Z,26.57
2019-04-14T21:57:15.313Z,22.95
2019-04-14T21:59:03.845Z,28.38
2019-04-14T22:01:01.955Z,29.25
2019-04-14T22:02:59.702Z,23.90
2019-04-14T22:04:41.221Z,31.07
2019-04-14T22:06:23.897Z,30.15
2019-04-14T22:08:05.011Z,25.02
2019-04-14T22:09:45.269Z,32.38
2019-04-14T22:11:29.838Z,26.95
2019-04-14T22:13:09.354Z,31.90
2019-04-14T22:14:47.902Z,31.45
2019-04-14T22:16:28.846Z,32.40
2019-04-14T22:18:13.036Z,33.00
2019-04-14T22:19:52.704Z,24.52
2019-04-14T22:21:31.204Z,27.67
2019-04-14T22:23:13.395Z,41.60
2019-04-14T22:24:52.822Z,31.10
2019-04-14T22:26:33.010Z,29.92
2019-04-14T22:28:15.377Z,30.75
2019-04-14T22:29:56.499Z,33.70
2019-04-14T22:31:36.168Z,26.77
2019-04-14T22:33:19.370Z,28.75
2019-04-14T22:34:58.833Z,28.15
2019-04-14T22:36:39.120Z,26.45
2019-04-14T22:38:18.386Z,26.80
2019-04-14T22:39:58.249Z,27.70
2019-04-14T22:41:37.562Z,26.15
2019-04-14T22:43:18.655Z,30.88
2019-04-14T22:44:57.953Z,32.70
2019-04-14T22:46:37.246Z,27.85
2019-04-14T22:48:19.402Z,23.75
2019-04-14T22:49:59.398Z,23.60
2019-04-14T22:51:39.248Z,25.37
2019-04-14T22:53:19.293Z,24.10
2019-04-14T22:54:59.189Z,26.65
2019-04-14T22:56:39.715Z,22.67
2019-04-14T22:58:20.192Z,22.42
2019-04-14T22:59:59.545Z,24.90
2019-04-14T23:01:40.737Z,19.40
2019-04-14T23:03:21.716Z,22.95
2019-04-14T23:05:09.420Z,30.20
2019-04-14T23:07:07.612Z,21.10
2019-04-14T23:08:52.533Z,25.00
2019-04-14T23:10:33.900Z,34.60
2019-04-14T23:12:18.763Z,26.85
2019-04-14T23:14:00.638Z,22.85
2019-04-14T23:15:40.824Z,26.25
2019-04-14T23:17:29.595Z,23.67
2019-04-14T23:19:11.081Z,23.32
2019-04-14T23:21:08.348Z,25.92
2019-04-14T23:23:01.584Z,22.87
2019-04-14T23:24:40.871Z,27.85
2019-04-14T23:26:21.861Z,21.45
2019-04-14T23:28:01.345Z,24.85
2019-04-14T23:29:41.486Z,23.67
2019-04-14T23:31:21.438Z,26.25
2019-04-14T23:32:59.833Z,23.67
2019-04-14T23:34:39.710Z,23.40
2019-04-14T23:36:19.029Z,24.55
2019-04-14T23:37:59.268Z,25.90
2019-04-14T23:39:39.385Z,27.40
2019-04-14T23:41:19.658Z,27.05
2019-04-14T23:42:59.007Z,29.07
2019-04-14T23:44:38.731Z,23.57
2019-04-14T23:46:18.016Z,21.48
2019-04-14T23:47:57.763Z,22.58
2019-04-14T23:49:35.969Z,31.02
2019-04-14T23:51:17.155Z,19.82
2019-04-14T23:52:58.089Z,18.05
2019-04-14T23:54:39.828Z,21.77
2019-04-14T23:56:19.167Z,20.20
2019-04-14T23:57:59.722Z,22.60
2019-04-14T23:59:38.400Z,19.57
